MSC Ingrid — HOHA — position and weather

sailwx.info

Track history (hours):
 
Tides and Currents Weather Stations Pressure Air Temp Water Temp Dewpoint Dewpoint Depression Visibility Wind Speed Wind Dir Waves Ship Positions

MSC Ingrid

Last reported at 2015-Feb-27 19:33 UTC. Time now 2015-Feb-28 16:02 UTC.
Position S 34°46' W 057°31'.

Length 294 m; draft 8.2 m.

Type: Ship (hazmat cat A). MMSI: 354505000.

Date/timePositionNaut miles runAvg speedWind from/ knotsBaromVisibWave heightAir tempDewpointWater temp
2015-Feb-27 19:33S 34°46' W 057°31'1414.4
2015-Feb-27 18:33S 34°43' W 057°48'1211.6
2015-Feb-27 17:33S 34°40' W 058°02'1312.9
2015-Feb-27 16:33S 34°36' W 058°17'4 3.7
2015-Feb-27 15:33S 34°39' W 058°21'0 0.0
2015-Feb-27 14:30S 34°39' W 058°21'0 0.0
2015-Feb-27 13:33S 34°39' W 058°21'0 0.0
2015-Feb-27 12:33S 34°39' W 058°21'0 0.0
2015-Feb-27 11:30S 34°39' W 058°21'0 0.0
2015-Feb-27 10:18S 34°39' W 058°21'0 0.0
2015-Feb-27 09:21S 34°39' W 058°21'0 0.0
2015-Feb-27 08:33S 34°39' W 058°21'0 0.0
2015-Feb-27 05:15S 34°39' W 058°21'0 0.0
2015-Feb-27 04:27S 34°39' W 058°21'0 0.0
2015-Feb-27 03:33S 34°39' W 058°21'0 0.0
2015-Feb-27 02:33S 34°39' W 058°21'0 0.0
2015-Feb-27 01:18S 34°39' W 058°21'0 0.0
2015-Feb-27 00:33S 34°39' W 058°21'0 0.0
2015-Feb-26 23:27S 34°39' W 058°21'0 0.0
2015-Feb-26 22:24S 34°39' W 058°21'4 3.0
2015-Feb-26 21:10S 34°36' W 058°17'6 9.3
2015-Feb-26 20:33S 34°37' W 058°10'1211.9
2015-Feb-26 19:33S 34°41' W 057°57'8 7.6
2015-Feb-26 18:33S 34°44' W 057°48'1110.7
2015-Feb-26 17:33S 34°46' W 057°35'80 8.0
2015-Feb-26 07:29S 35°05' W 055°60'6013.6
2015-Feb-26 03:06S 35°04' W 054°47'54915.8
2015-Feb-24 16:26S 27°57' W 048°03'1516.2
2015-Feb-24 15:32S 27°43' W 047°57'23016.4
2015-Feb-24 01:32S 24°09' W 046°24'1111.6
2015-Feb-24 00:33S 23°59' W 046°17'5 5.2
2015-Feb-23 23:33S 23°55' W 046°21'0 0.0
2015-Feb-23 20:29S 23°55' W 046°21'0 0.0
2015-Feb-23 15:28S 23°55' W 046°21'0 0.0
2015-Feb-23 14:19S 23°55' W 046°21'0 0.0
2015-Feb-23 10:19S 23°55' W 046°21'1 0.9
2015-Feb-23 09:32S 23°55' W 046°21'5 4.7
2015-Feb-23 08:33S 23°60' W 046°20'7 6.9
2015-Feb-23 07:32S 24°06' W 046°23'1 0.7
2015-Feb-23 06:32S 24°06' W 046°24'0 0.1
2015-Feb-23 05:32S 24°06' W 046°24'9 8.8
2015-Feb-23 04:32S 24°14' W 046°21'27215.6
2015-Feb-22 11:08S 23°06' W 041°34'  
Track history (hours):
 
Tides and Currents Weather Stations Pressure Air Temp Water Temp Dewpoint Dewpoint Depression Visibility Wind Speed Wind Dir Waves Ship Positions

MSC Ingrid

Last reported at 2015-Feb-27 19:33 UTC. Time now 2015-Feb-28 16:02 UTC.
Position S 34°46' W 057°31'.

Length 294 m; draft 8.2 m.

Type: Ship (hazmat cat A). MMSI: 354505000.

Date/timePositionNaut miles runAvg speedWind from/ knotsBaromVisibWave heightAir tempDewpointWater temp
2015-Feb-27 19:33S 34°46' W 057°31'1414.4
2015-Feb-27 18:33S 34°43' W 057°48'1211.6
2015-Feb-27 17:33S 34°40' W 058°02'1312.9
2015-Feb-27 16:33S 34°36' W 058°17'4 3.7
2015-Feb-27 15:33S 34°39' W 058°21'0 0.0
2015-Feb-27 14:30S 34°39' W 058°21'0 0.0
2015-Feb-27 13:33S 34°39' W 058°21'0 0.0
2015-Feb-27 12:33S 34°39' W 058°21'0 0.0
2015-Feb-27 11:30S 34°39' W 058°21'0 0.0
2015-Feb-27 10:18S 34°39' W 058°21'0 0.0
2015-Feb-27 09:21S 34°39' W 058°21'0 0.0
2015-Feb-27 08:33S 34°39' W 058°21'0 0.0
2015-Feb-27 05:15S 34°39' W 058°21'0 0.0
2015-Feb-27 04:27S 34°39' W 058°21'0 0.0
2015-Feb-27 03:33S 34°39' W 058°21'0 0.0
2015-Feb-27 02:33S 34°39' W 058°21'0 0.0
2015-Feb-27 01:18S 34°39' W 058°21'0 0.0
2015-Feb-27 00:33S 34°39' W 058°21'0 0.0
2015-Feb-26 23:27S 34°39' W 058°21'0 0.0
2015-Feb-26 22:24S 34°39' W 058°21'4 3.0
2015-Feb-26 21:10S 34°36' W 058°17'6 9.3
2015-Feb-26 20:33S 34°37' W 058°10'1211.9
2015-Feb-26 19:33S 34°41' W 057°57'8 7.6
2015-Feb-26 18:33S 34°44' W 057°48'1110.7
2015-Feb-26 17:33S 34°46' W 057°35'80 8.0
2015-Feb-26 07:29S 35°05' W 055°60'6013.6
2015-Feb-26 03:06S 35°04' W 054°47'54915.8
2015-Feb-24 16:26S 27°57' W 048°03'1516.2
2015-Feb-24 15:32S 27°43' W 047°57'23016.4
2015-Feb-24 01:32S 24°09' W 046°24'1111.6
2015-Feb-24 00:33S 23°59' W 046°17'5 5.2
2015-Feb-23 23:33S 23°55' W 046°21'0 0.0
2015-Feb-23 20:29S 23°55' W 046°21'0 0.0
2015-Feb-23 15:28S 23°55' W 046°21'0 0.0
2015-Feb-23 14:19S 23°55' W 046°21'0 0.0
2015-Feb-23 10:19S 23°55' W 046°21'1 0.9
2015-Feb-23 09:32S 23°55' W 046°21'5 4.7
2015-Feb-23 08:33S 23°60' W 046°20'7 6.9
2015-Feb-23 07:32S 24°06' W 046°23'1 0.7
2015-Feb-23 06:32S 24°06' W 046°24'0 0.1
2015-Feb-23 05:32S 24°06' W 046°24'9 8.8
2015-Feb-23 04:32S 24°14' W 046°21'27215.6
2015-Feb-22 11:08S 23°06' W 041°34'  

Dump ship's entire track history